Impacts METAR Board
IDs:

KTCL - Tuscaloosa Rgnl, AL, US

Updated at: 1500 UTC 15 Oct 2018
Potential Impact None Slight Moderate High
Time 15/03Z 15/04Z 15/05Z 15/06Z 15/07Z 15/08Z 15/09Z 15/10Z 15/11Z 15/12Z 15/13Z 15/14Z 15/15Z
Temp77 73 75 69 68 67 69 67 65 66 69 71 74
Dewpt64 64 63 65 64 64 63 63 63 63 64 64 65
Altim30.04 30.04 30.04 30.05 30.05 30.04 30.04 30.04 30.07 30.08 30.09 30.11 30.12
VIS10 10 10 10 10 10 10 10 10 10 10 10 10
CIG120 -- -- -- -- -- -- -- -- 16 -- 18 12
CoverBKNCLRCLRCLRCLRCLRCLRCLRCLRBKNSCTBKNOVC
FltCatVFRVFRVFRVFRVFRVFRVFRVFRVFRMVFRVFRMVFRMVFR
WX--------------------------
WDir1400150000000001000
WSpd4 0 3 0 0 0 0 0 0 0 0 3 0
WGst-- -- -- -- -- -- -- -- -- -- -- -- --
Raw hourly METARs
KTCL 150253Z AUTO 14004KT 10SM BKN120 25/18 A3004 RMK AO2 SLP171 T02500178 53016
KTCL 150353Z AUTO 00000KT 10SM CLR 23/18 A3004 RMK AO2 SLP169 T02280178
KTCL 150453Z AUTO 15003KT 10SM CLR 24/17 A3004 RMK AO2 SLP169 T02390172
KTCL 150553Z AUTO 00000KT 10SM CLR 21/18 A3005 RMK AO2 SLP173 T02060183 10261 20206 403170172 53002
KTCL 150653Z AUTO 00000KT 10SM CLR 20/18 A3005 RMK AO2 SLP173 T02000178
KTCL 150753Z AUTO 00000KT 10SM CLR 19/18 A3004 RMK AO2 SLP171 T01940178
KTCL 150853Z AUTO 00000KT 10SM CLR 21/17 A3004 RMK AO2 SLP169 T02060172 58003
KTCL 150953Z AUTO 00000KT 10SM CLR 19/17 A3004 RMK AO2 SLP169 T01940172
KTCL 151053Z AUTO 00000KT 10SM CLR 18/17 A3007 RMK AO2 SLP178 T01830172
KTCL 151153Z 00000KT 10SM BKN016 19/17 A3008 RMK AO2 SLP182 T01890172 10217 20183 53013
KTCL 151300Z 00000KT 10SM FEW014 SCT021 21/18 A3009 RMK AO2 T02060178
KTCL 151353Z 10003KT 10SM FEW002 BKN018 BKN023 22/18 A3011 RMK AO2 SLP192 T02170178
KTCL 151453Z 00000KT 10SM OVC012 23/18 A3012 RMK AO2 SLP197 T02330183 51014



Page loaded:  15:42 UTC  |   08:42 AM Pacific  |   09:42 AM Mountain  |   10:42 AM Central  |   11:42 AM Eastern

 

ADVISORIES

FORECASTS

FORECASTS

OBSERVATIONS

USER TOOLS

ABOUT US